Time;durP1;ratioP1;P1;durP2;ratioP2;P2;SDS_P1;SDS_P2;PMS_P1;PMS_P2;Temp;Humidity;BMP_temperature;BMP_pressure;BME280_temperature;BME280_humidity;BME280_pressure;Samples;Min_cycle;Max_cycle;Signal;HPM_P1;HPM_P2
2023/06/14 00:01:27;;;;;;;5.22;3.55;;;;;;;;;;5114535;27;20209;-79
2023/06/14 00:03:54;;;;;;;8.23;3.60;;;;;;;;;;5099855;28;20305;-79
2023/06/14 00:06:19;;;;;;;5.15;3.38;;;;;;;;;;5099619;28;20237;-79
2023/06/14 00:08:46;;;;;;;7.68;3.60;;;;;;;;;;5116389;28;20196;-79
2023/06/14 00:11:12;;;;;;;4.75;3.45;;;;;;;;;;5099750;28;20223;-79
2023/06/14 00:13:38;;;;;;;6.22;3.53;;;;;;;;;;5116234;28;20170;-79
2023/06/14 00:16:04;;;;;;;4.40;3.50;;;;;;;;;;5099488;28;20185;-79
2023/06/14 00:18:30;;;;;;;5.07;3.40;;;;;;;;;;5101499;27;20178;-79
2023/06/14 00:20:56;;;;;;;5.63;3.60;;;;;;;;;;5120000;27;20209;-79
2023/06/14 00:23:22;;;;;;;7.80;3.87;;;;;;;;;;5137066;27;20204;-79
2023/06/14 00:25:48;;;;;;;5.20;3.60;;;;;;;;;;5136633;27;20216;-79
2023/06/14 00:28:14;;;;;;;7.70;3.35;;;;;;;;;;5136768;27;20173;-79
2023/06/14 00:30:40;;;;;;;7.10;3.63;;;;;;;;;;5136724;27;20173;-79
2023/06/14 00:33:06;;;;;;;7.80;3.47;;;;;;;;;;5119732;27;20245;-79
2023/06/14 00:35:32;;;;;;;8.23;3.27;;;;;;;;;;5135379;27;20224;-79
2023/06/14 00:37:59;;;;;;;6.22;3.45;;;;;;;;;;5086402;28;20193;-79
2023/06/14 00:40:25;;;;;;;6.60;3.63;;;;;;;;;;5082195;28;20189;-79
2023/06/14 00:42:51;;;;;;;4.50;3.43;;;;;;;;;;5116752;28;20182;-78
2023/06/14 00:45:17;;;;;;;8.57;3.25;;;;;;;;;;5114500;28;20214;-79
2023/06/14 00:47:43;;;;;;;5.77;3.33;;;;;;;;;;5115301;28;20185;-79
2023/06/14 00:50:11;;;;;;;5.27;3.47;;;;;;;;;;5115151;27;20189;-79
2023/06/14 00:52:37;;;;;;;6.57;3.57;;;;;;;;;;5098641;28;20186;-79
2023/06/14 00:55:03;;;;;;;6.47;3.70;;;;;;;;;;5097965;28;20197;-79
2023/06/14 00:57:29;;;;;;;4.73;3.30;;;;;;;;;;5114490;27;20189;-79
2023/06/14 00:59:56;;;;;;;6.63;3.43;;;;;;;;;;5094628;28;20182;-79
2023/06/14 01:02:22;;;;;;;9.67;3.30;;;;;;;;;;5112842;27;20251;-79
2023/06/14 01:04:49;;;;;;;4.50;3.30;;;;;;;;;;5114470;28;20219;-79
2023/06/14 01:07:15;;;;;;;6.93;3.47;;;;;;;;;;5115697;28;20265;-79
2023/06/14 01:10:00;;;;;;;6.53;3.37;;;;;;;;;;5114423;28;20260;-79
2023/06/14 01:12:39;;;;;;;8.03;3.40;;;;;;;;;;5114765;28;20185;-79
2023/06/14 01:15:07;;;;;;;6.53;3.30;;;;;;;;;;5116410;28;20182;-79
2023/06/14 01:17:33;;;;;;;6.00;3.40;;;;;;;;;;5114882;28;20268;-79
2023/06/14 01:20:01;;;;;;;5.53;3.50;;;;;;;;;;5114323;28;20214;-80
2023/06/14 01:22:28;;;;;;;8.63;3.50;;;;;;;;;;5113259;28;20190;-80
2023/06/14 01:24:55;;;;;;;5.20;3.00;;;;;;;;;;5112768;28;20273;-79
2023/06/14 01:27:28;;;;;;;4.33;3.40;;;;;;;;;;5094426;28;20191;-80
2023/06/14 01:29:56;;;;;;;6.97;3.57;;;;;;;;;;5093801;28;20186;-79
2023/06/14 01:32:23;;;;;;;7.27;3.70;;;;;;;;;;5113611;27;20197;-79
2023/06/14 01:34:48;;;;;;;8.90;3.33;;;;;;;;;;5115957;27;20264;-79
2023/06/14 01:37:14;;;;;;;6.77;3.23;;;;;;;;;;5113598;28;20295;-79
2023/06/14 01:39:42;;;;;;;7.13;3.23;;;;;;;;;;5107178;28;20188;-79
2023/06/14 01:42:08;;;;;;;7.83;2.93;;;;;;;;;;5114864;28;20215;-79
2023/06/14 01:44:34;;;;;;;11.93;3.30;;;;;;;;;;5096314;28;20193;-79
2023/06/14 01:47:01;;;;;;;6.27;3.40;;;;;;;;;;5115086;28;20241;-79
2023/06/14 01:49:27;;;;;;;5.67;3.40;;;;;;;;;;5107922;28;20211;-79
2023/06/14 01:51:53;;;;;;;8.27;3.60;;;;;;;;;;5096281;28;20185;-79
2023/06/14 01:54:19;;;;;;;6.23;3.30;;;;;;;;;;5092575;28;20217;-79
2023/06/14 01:56:45;;;;;;;8.40;3.17;;;;;;;;;;5106914;28;20188;-79
2023/06/14 01:59:11;;;;;;;6.17;3.70;;;;;;;;;;5112871;28;20234;-79
2023/06/14 02:01:37;;;;;;;9.43;3.43;;;;;;;;;;5112630;28;20186;-79
2023/06/14 02:04:03;;;;;;;9.07;3.60;;;;;;;;;;5113179;28;20330;-79
2023/06/14 02:06:29;;;;;;;7.03;3.40;;;;;;;;;;5093953;28;20293;-79
2023/06/14 02:08:55;;;;;;;6.33;3.50;;;;;;;;;;5077003;28;20179;-78
2023/06/14 02:11:21;;;;;;;6.90;3.80;;;;;;;;;;5077196;28;20261;-78
2023/06/14 02:13:47;;;;;;;8.50;3.20;;;;;;;;;;5094010;28;20174;-78
2023/06/14 02:16:17;;;;;;;12.37;3.30;;;;;;;;;;5060998;28;20206;-79
2023/06/14 02:18:43;;;;;;;7.43;3.23;;;;;;;;;;5094203;28;20194;-79
2023/06/14 02:21:09;;;;;;;10.77;3.63;;;;;;;;;;5076742;28;20186;-78
2023/06/14 02:23:35;;;;;;;9.07;3.20;;;;;;;;;;5077202;28;20225;-79
2023/06/14 02:26:02;;;;;;;9.07;3.30;;;;;;;;;;5077102;28;20234;-78
2023/06/14 02:28:28;;;;;;;6.13;3.47;;;;;;;;;;5076956;28;20179;-78
2023/06/14 02:30:54;;;;;;;5.80;3.20;;;;;;;;;;5093944;28;20175;-78
2023/06/14 02:33:21;;;;;;;3.83;3.03;;;;;;;;;;5093738;28;20206;-78
2023/06/14 02:35:47;;;;;;;8.87;3.40;;;;;;;;;;5077108;28;20234;-78
2023/06/14 02:38:14;;;;;;;5.37;3.33;;;;;;;;;;5077318;28;20186;-78
2023/06/14 02:40:42;;;;;;;6.07;3.00;;;;;;;;;;5077170;28;20187;-79
2023/06/14 02:43:08;;;;;;;10.97;3.20;;;;;;;;;;5093242;28;20170;-80
2023/06/14 02:45:34;;;;;;;5.43;3.23;;;;;;;;;;5094229;28;20202;-80
2023/06/14 02:48:00;;;;;;;5.27;3.27;;;;;;;;;;5076633;28;20175;-79
2023/06/14 02:50:28;;;;;;;7.17;3.27;;;;;;;;;;5093310;28;20175;-79
2023/06/14 02:52:55;;;;;;;4.93;3.20;;;;;;;;;;5093521;28;20254;-79
2023/06/14 02:55:21;;;;;;;6.63;3.23;;;;;;;;;;5094647;28;20189;-79
2023/06/14 02:57:48;;;;;;;9.63;3.47;;;;;;;;;;5093555;28;20196;-79
2023/06/14 03:00:14;;;;;;;6.60;3.00;;;;;;;;;;5076343;28;20174;-79
2023/06/14 03:02:42;;;;;;;5.33;2.80;;;;;;;;;;5093396;28;20261;-79
2023/06/14 03:05:09;;;;;;;9.43;3.30;;;;;;;;;;5094704;28;20205;-79
2023/06/14 03:07:40;;;;;;;4.20;3.07;;;;;;;;;;5096973;28;20188;-79
2023/06/14 03:10:08;;;;;;;7.27;3.37;;;;;;;;;;5098271;28;20181;-79
2023/06/14 03:12:34;;;;;;;4.47;3.30;;;;;;;;;;5097022;28;20182;-79
2023/06/14 03:15:04;;;;;;;9.27;3.50;;;;;;;;;;5113181;28;20200;-79
2023/06/14 03:17:33;;;;;;;6.63;3.20;;;;;;;;;;5113746;28;20178;-79
2023/06/14 03:19:59;;;;;;;5.70;3.23;;;;;;;;;;5097273;28;20194;-79
2023/06/14 03:22:26;;;;;;;5.43;3.60;;;;;;;;;;5091133;28;20178;-80
2023/06/14 03:24:53;;;;;;;7.07;3.17;;;;;;;;;;5096753;28;20190;-79
2023/06/14 03:27:20;;;;;;;6.00;2.87;;;;;;;;;;5113451;28;20170;-79
2023/06/14 03:29:46;;;;;;;7.30;3.40;;;;;;;;;;5119328;28;20177;-79
2023/06/14 03:32:12;;;;;;;8.90;3.00;;;;;;;;;;5108484;28;20213;-79
2023/06/14 03:34:38;;;;;;;5.90;3.53;;;;;;;;;;5113576;28;20183;-79
2023/06/14 03:37:05;;;;;;;5.67;3.20;;;;;;;;;;5113102;28;20229;-79
2023/06/14 03:39:31;;;;;;;6.70;3.10;;;;;;;;;;5100240;28;20198;-79
2023/06/14 03:41:57;;;;;;;5.83;2.93;;;;;;;;;;5075503;28;20294;-78
2023/06/14 03:44:23;;;;;;;6.33;3.23;;;;;;;;;;5098217;28;20264;-78
2023/06/14 03:46:49;;;;;;;10.67;3.03;;;;;;;;;;5100523;28;20263;-78
2023/06/14 03:49:16;;;;;;;4.87;3.23;;;;;;;;;;5100107;28;20174;-79
2023/06/14 03:51:43;;;;;;;8.93;3.37;;;;;;;;;;5100393;28;20186;-79
2023/06/14 03:54:09;;;;;;;6.10;3.20;;;;;;;;;;5117388;28;20170;-78
2023/06/14 03:56:35;;;;;;;8.27;3.53;;;;;;;;;;5099767;28;20221;-78
2023/06/14 03:59:02;;;;;;;10.17;3.47;;;;;;;;;;5116676;28;20185;-78
2023/06/14 04:01:29;;;;;;;5.63;3.40;;;;;;;;;;5116923;28;20177;-78
2023/06/14 04:03:58;;;;;;;7.83;3.20;;;;;;;;;;5116108;28;20274;-79
2023/06/14 04:06:31;;;;;;;8.33;3.43;;;;;;;;;;5096821;28;20206;-79
2023/06/14 04:08:57;;;;;;;6.87;3.00;;;;;;;;;;5080825;28;20179;-79
2023/06/14 04:11:25;;;;;;;4.83;3.07;;;;;;;;;;5097589;28;20177;-79
2023/06/14 04:13:53;;;;;;;9.07;2.90;;;;;;;;;;5116268;28;20179;-79
2023/06/14 04:16:19;;;;;;;5.10;3.10;;;;;;;;;;5100060;28;20182;-79
2023/06/14 04:18:46;;;;;;;6.93;3.43;;;;;;;;;;5097373;28;20178;-79
2023/06/14 04:21:12;;;;;;;6.77;3.57;;;;;;;;;;5062770;28;20193;-79
2023/06/14 04:23:38;;;;;;;6.67;3.20;;;;;;;;;;5095920;28;20178;-79
2023/06/14 04:26:04;;;;;;;6.33;3.60;;;;;;;;;;5070908;28;20202;-79
2023/06/14 04:28:30;;;;;;;5.33;2.97;;;;;;;;;;5097162;28;20278;-79
2023/06/14 04:30:56;;;;;;;6.33;3.07;;;;;;;;;;5105479;28;20189;-79
2023/06/14 04:33:25;;;;;;;6.23;3.10;;;;;;;;;;5099155;28;20177;-79
2023/06/14 04:35:53;;;;;;;10.53;3.47;;;;;;;;;;5116219;28;20252;-79
2023/06/14 04:38:24;;;;;;;6.20;3.22;;;;;;;;;;5114922;27;20415;-78
2023/06/14 04:40:52;;;;;;;5.17;3.33;;;;;;;;;;5116110;28;20182;-78
2023/06/14 04:43:25;;;;;;;5.37;3.10;;;;;;;;;;5115491;28;20204;-79
2023/06/14 04:45:54;;;;;;;5.93;3.10;;;;;;;;;;5116217;28;20250;-78
2023/06/14 04:48:20;;;;;;;5.13;2.90;;;;;;;;;;5116319;28;20170;-78
2023/06/14 04:50:46;;;;;;;5.03;3.33;;;;;;;;;;5120067;27;20173;-78
2023/06/14 04:53:12;;;;;;;7.23;3.70;;;;;;;;;;5136839;27;20226;-79
2023/06/14 04:55:38;;;;;;;6.50;3.37;;;;;;;;;;5136374;27;20192;-77
2023/06/14 04:58:04;;;;;;;6.80;3.20;;;;;;;;;;5119618;27;20177;-77
2023/06/14 05:00:31;;;;;;;4.97;3.10;;;;;;;;;;5117623;27;20205;-78
2023/06/14 05:02:57;;;;;;;5.90;3.33;;;;;;;;;;5098716;28;20178;-78
2023/06/14 05:05:24;;;;;;;5.53;3.20;;;;;;;;;;5098698;28;20213;-78
2023/06/14 05:07:50;;;;;;;4.93;3.17;;;;;;;;;;5103325;27;20182;-77
2023/06/14 05:10:16;;;;;;;4.70;3.23;;;;;;;;;;5129929;27;20173;-79
2023/06/14 05:12:43;;;;;;;4.80;3.17;;;;;;;;;;5100558;28;20178;-79
2023/06/14 05:15:09;;;;;;;5.47;3.60;;;;;;;;;;5100469;28;20178;-79
2023/06/14 05:17:36;;;;;;;6.83;3.20;;;;;;;;;;5116151;28;20166;-79
2023/06/14 05:20:03;;;;;;;10.53;3.50;;;;;;;;;;5116290;28;20253;-79
2023/06/14 05:22:29;;;;;;;4.97;3.50;;;;;;;;;;5131190;27;20180;-79
2023/06/14 05:24:55;;;;;;;5.40;3.60;;;;;;;;;;5113143;28;20174;-79
2023/06/14 05:27:21;;;;;;;6.37;3.20;;;;;;;;;;5115179;27;20204;-79
2023/06/14 05:29:47;;;;;;;7.13;3.27;;;;;;;;;;5135839;27;20197;-79
2023/06/14 05:32:13;;;;;;;5.17;3.37;;;;;;;;;;5135777;27;20213;-79
2023/06/14 05:34:40;;;;;;;7.07;3.40;;;;;;;;;;5114732;28;20182;-79
2023/06/14 05:37:06;;;;;;;5.20;3.30;;;;;;;;;;5120861;22;20239;-79
2023/06/14 05:39:33;;;;;;;10.27;3.70;;;;;;;;;;5097834;28;20189;-79
2023/06/14 05:41:59;;;;;;;6.73;3.30;;;;;;;;;;5093450;28;20178;-79
2023/06/14 05:44:25;;;;;;;4.37;3.37;;;;;;;;;;5071821;28;20189;-79
2023/06/14 05:46:51;;;;;;;7.90;3.97;;;;;;;;;;5114455;28;20209;-80
2023/06/14 05:49:17;;;;;;;5.03;3.13;;;;;;;;;;5079550;28;20206;-78
2023/06/14 05:51:43;;;;;;;8.87;3.40;;;;;;;;;;5076391;28;20256;-78
2023/06/14 05:54:09;;;;;;;3.80;3.10;;;;;;;;;;5073822;28;20178;-78
2023/06/14 05:56:35;;;;;;;7.10;3.43;;;;;;;;;;5070183;28;20190;-78
2023/06/14 05:59:02;;;;;;;5.60;3.13;;;;;;;;;;5096616;28;20200;-78
2023/06/14 06:01:28;;;;;;;7.93;3.07;;;;;;;;;;5114513;28;20186;-78
2023/06/14 06:03:54;;;;;;;5.33;3.23;;;;;;;;;;5076983;28;20204;-80
2023/06/14 06:06:20;;;;;;;6.47;3.20;;;;;;;;;;5076313;28;20457;-79
2023/06/14 06:08:46;;;;;;;7.33;4.00;;;;;;;;;;5087593;28;20189;-82
2023/06/14 06:11:12;;;;;;;7.37;3.90;;;;;;;;;;5114166;28;20182;-80
2023/06/14 06:13:39;;;;;;;7.78;3.85;;;;;;;;;;5113818;28;20415;-82
2023/06/14 06:16:05;;;;;;;6.10;3.67;;;;;;;;;;5115470;28;20205;-80
2023/06/14 06:18:31;;;;;;;9.60;3.87;;;;;;;;;;5097734;28;20176;-81
2023/06/14 06:20:57;;;;;;;4.93;3.63;;;;;;;;;;5079159;28;20190;-81
2023/06/14 06:23:23;;;;;;;11.23;4.80;;;;;;;;;;5089173;28;20186;-81
2023/06/14 06:25:49;;;;;;;8.73;3.40;;;;;;;;;;5100591;28;20194;-82
2023/06/14 06:28:15;;;;;;;6.33;3.50;;;;;;;;;;5096960;28;20174;-81
2023/06/14 06:30:41;;;;;;;3.97;3.20;;;;;;;;;;5097463;28;20174;-80
2023/06/14 06:33:07;;;;;;;4.67;3.60;;;;;;;;;;5097232;28;20178;-80
2023/06/14 06:35:33;;;;;;;6.07;3.30;;;;;;;;;;5096963;28;20225;-81
2023/06/14 06:38:00;;;;;;;7.83;3.40;;;;;;;;;;5097071;28;20194;-83
2023/06/14 06:40:26;;;;;;;5.53;3.50;;;;;;;;;;5112136;28;20189;-81
2023/06/14 06:42:53;;;;;;;5.53;3.37;;;;;;;;;;5096656;28;20178;-81
2023/06/14 06:45:19;;;;;;;4.80;3.20;;;;;;;;;;5079909;28;20206;-83
2023/06/14 06:47:45;;;;;;;6.33;3.50;;;;;;;;;;5079794;28;20178;-83
2023/06/14 06:50:11;;;;;;;4.87;3.30;;;;;;;;;;5077222;28;20254;-82
2023/06/14 06:52:37;;;;;;;4.53;3.37;;;;;;;;;;5096560;28;20182;-83
2023/06/14 06:55:03;;;;;;;6.33;3.10;;;;;;;;;;5079672;28;20201;-83
2023/06/14 06:57:29;;;;;;;7.10;3.40;;;;;;;;;;5096700;28;20182;-83
2023/06/14 06:59:55;;;;;;;8.97;4.03;;;;;;;;;;5092444;28;20201;-79
2023/06/14 07:02:21;;;;;;;5.70;3.10;;;;;;;;;;5094580;28;20175;-79
2023/06/14 07:04:47;;;;;;;7.13;3.40;;;;;;;;;;5095302;28;20176;-79
2023/06/14 07:07:13;;;;;;;9.83;3.47;;;;;;;;;;5108041;28;20205;-82
2023/06/14 07:09:41;;;;;;;9.10;3.40;;;;;;;;;;5113962;28;20272;-82
2023/06/14 07:12:07;;;;;;;8.00;3.47;;;;;;;;;;5097109;28;20190;-81
2023/06/14 07:14:33;;;;;;;8.30;3.00;;;;;;;;;;5087814;28;20186;-82
2023/06/14 07:16:59;;;;;;;6.90;2.93;;;;;;;;;;5065554;28;20194;-81
2023/06/14 07:19:26;;;;;;;5.73;2.97;;;;;;;;;;5106844;28;20178;-82
2023/06/14 07:21:52;;;;;;;5.30;2.60;;;;;;;;;;5070838;28;20182;-82
2023/06/14 07:24:18;;;;;;;9.57;3.00;;;;;;;;;;5090513;28;20217;-80
2023/06/14 07:26:44;;;;;;;4.00;2.57;;;;;;;;;;5075904;28;20234;-80
2023/06/14 07:29:10;;;;;;;4.50;2.70;;;;;;;;;;5092687;28;20185;-79
2023/06/14 07:31:36;;;;;;;4.10;2.43;;;;;;;;;;5076054;28;20186;-80
2023/06/14 07:34:03;;;;;;;4.23;2.60;;;;;;;;;;5075672;28;20186;-80
2023/06/14 07:36:29;;;;;;;4.20;2.40;;;;;;;;;;5088889;28;20234;-80
2023/06/14 07:38:55;;;;;;;3.23;2.10;;;;;;;;;;5059394;28;20276;-80
2023/06/14 07:41:21;;;;;;;3.80;2.20;;;;;;;;;;5084416;28;20187;-82
2023/06/14 07:43:47;;;;;;;2.67;2.00;;;;;;;;;;5092094;28;20256;-79
2023/06/14 07:46:13;;;;;;;3.30;2.30;;;;;;;;;;5077052;28;20225;-79
2023/06/14 07:48:39;;;;;;;2.60;1.87;;;;;;;;;;5059207;28;20185;-80
2023/06/14 07:51:05;;;;;;;3.80;2.30;;;;;;;;;;5095988;28;20177;-79
2023/06/14 07:53:31;;;;;;;4.10;2.00;;;;;;;;;;5096011;28;20178;-78
2023/06/14 07:55:57;;;;;;;3.57;1.97;;;;;;;;;;5093834;28;20190;-79
2023/06/14 07:58:23;;;;;;;1.80;1.70;;;;;;;;;;5102622;28;20200;-83
2023/06/14 08:00:49;;;;;;;3.47;1.85;;;;;;;;;;5103684;28;20186;-84
2023/06/14 08:03:15;;;;;;;5.75;2.53;;;;;;;;;;5094244;28;20197;-83
2023/06/14 08:05:41;;;;;;;5.22;2.35;;;;;;;;;;5086893;28;20211;-83
2023/06/14 08:08:07;;;;;;;7.00;2.22;;;;;;;;;;5095933;28;20174;-82
2023/06/14 08:10:34;;;;;;;5.32;2.13;;;;;;;;;;5075776;28;20185;-83
2023/06/14 08:13:00;;;;;;;4.55;2.13;;;;;;;;;;5075863;28;20186;-82
2023/06/14 08:15:25;;;;;;;2.25;2.05;;;;;;;;;;5077539;28;20182;-79
2023/06/14 08:17:52;;;;;;;5.03;2.20;;;;;;;;;;5059273;28;20182;-79
2023/06/14 08:20:18;;;;;;;5.28;3.35;;;;;;;;;;5096121;28;20179;-79
2023/06/14 08:22:46;;;;;;;8.57;3.78;;;;;;;;;;5096256;28;20232;-79
2023/06/14 08:25:12;;;;;;;6.72;2.28;;;;;;;;;;5096803;28;20249;-79
2023/06/14 08:27:38;;;;;;;6.15;2.70;;;;;;;;;;5097487;28;20226;-83
2023/06/14 08:30:04;;;;;;;4.93;2.60;;;;;;;;;;5098144;28;20177;-81
2023/06/14 08:32:30;;;;;;;3.78;2.13;;;;;;;;;;5082379;28;20182;-81
2023/06/14 08:34:56;;;;;;;8.80;2.80;;;;;;;;;;5099411;28;20170;-82
2023/06/14 08:37:22;;;;;;;4.10;2.40;;;;;;;;;;5099161;28;20305;-83
2023/06/14 08:39:48;;;;;;;3.90;2.60;;;;;;;;;;5079351;28;20210;-82
2023/06/14 08:42:14;;;;;;;7.35;2.38;;;;;;;;;;5079010;28;20183;-82
2023/06/14 08:44:41;;;;;;;4.82;2.40;;;;;;;;;;5095738;28;20186;-82
2023/06/14 08:47:08;;;;;;;3.33;2.20;;;;;;;;;;5078758;28;20214;-79
2023/06/14 08:49:36;;;;;;;4.45;2.13;;;;;;;;;;5078558;28;20204;-79
2023/06/14 08:52:03;;;;;;;3.05;2.35;;;;;;;;;;5078751;28;20181;-79
2023/06/14 08:54:36;;;;;;;4.43;2.20;;;;;;;;;;5062105;28;20181;-79
2023/06/14 08:57:04;;;;;;;6.35;2.35;;;;;;;;;;5087620;28;20178;-79
2023/06/14 08:59:33;;;;;;;4.70;2.40;;;;;;;;;;5111480;28;20174;-80
2023/06/14 09:02:00;;;;;;;8.75;3.20;;;;;;;;;;5095630;28;20174;-81
2023/06/14 09:04:29;;;;;;;7.05;2.70;;;;;;;;;;5096373;28;20197;-79
2023/06/14 09:06:55;;;;;;;3.83;2.10;;;;;;;;;;5084458;28;20229;-79
2023/06/14 09:09:22;;;;;;;4.78;2.20;;;;;;;;;;5098526;28;20178;-81
2023/06/14 09:11:49;;;;;;;4.82;1.90;;;;;;;;;;5116322;28;20184;-80
2023/06/14 09:14:15;;;;;;;3.97;1.83;;;;;;;;;;5114961;28;20174;-80
2023/06/14 09:16:41;;;;;;;3.30;2.10;;;;;;;;;;5100449;28;20197;-80
2023/06/14 09:19:07;;;;;;;2.78;1.70;;;;;;;;;;5094933;28;20174;-81
2023/06/14 09:21:37;;;;;;;3.78;2.17;;;;;;;;;;5078053;28;20189;-80
2023/06/14 09:24:04;;;;;;;3.70;2.10;;;;;;;;;;5095000;28;20178;-80
2023/06/14 09:26:30;;;;;;;3.05;1.80;;;;;;;;;;5111855;28;20201;-79
2023/06/14 09:28:56;;;;;;;7.43;2.55;;;;;;;;;;5097880;28;20204;-79
2023/06/14 09:31:22;;;;;;;7.28;2.30;;;;;;;;;;5116273;28;20186;-79
2023/06/14 09:33:49;;;;;;;2.97;1.90;;;;;;;;;;5081036;28;20181;-80
2023/06/14 09:36:17;;;;;;;5.15;1.95;;;;;;;;;;5114425;28;20234;-80
2023/06/14 09:38:52;;;;;;;5.25;2.10;;;;;;;;;;5115838;28;20208;-81
2023/06/14 09:41:18;;;;;;;3.25;2.45;;;;;;;;;;5115959;28;20170;-79
2023/06/14 09:43:45;;;;;;;6.05;2.25;;;;;;;;;;5081220;28;20231;-79
2023/06/14 09:46:11;;;;;;;5.32;2.22;;;;;;;;;;5081059;28;20341;-80
2023/06/14 09:48:39;;;;;;;3.97;2.00;;;;;;;;;;5080732;28;20193;-79
2023/06/14 09:51:06;;;;;;;4.82;1.90;;;;;;;;;;5114949;28;20178;-79
2023/06/14 09:53:36;;;;;;;3.53;1.75;;;;;;;;;;5114600;28;20174;-78
2023/06/14 09:56:02;;;;;;;1.70;1.60;;;;;;;;;;5096861;28;20184;-79
2023/06/14 09:58:29;;;;;;;3.63;1.70;;;;;;;;;;5076822;28;20269;-78
2023/06/14 10:00:56;;;;;;;2.80;1.70;;;;;;;;;;5093419;28;20225;-81
2023/06/14 10:03:25;;;;;;;2.67;1.80;;;;;;;;;;5060573;28;20190;-81
2023/06/14 10:05:51;;;;;;;2.33;2.10;;;;;;;;;;5109184;28;20202;-84
2023/06/14 10:08:19;;;;;;;3.85;1.90;;;;;;;;;;5060558;28;20186;-80
2023/06/14 10:10:45;;;;;;;3.50;1.77;;;;;;;;;;5094140;28;20209;-78
2023/06/14 10:13:12;;;;;;;3.90;1.83;;;;;;;;;;5115424;28;20172;-77
2023/06/14 10:15:37;;;;;;;3.90;1.90;;;;;;;;;;5115770;28;20174;-77
2023/06/14 10:18:14;;;;;;;4.85;2.00;;;;;;;;;;5097839;28;20307;-77
2023/06/14 10:20:45;;;;;;;2.13;1.90;;;;;;;;;;5090668;28;20201;-77
2023/06/14 10:23:14;;;;;;;4.15;1.83;;;;;;;;;;5096950;28;20181;-77
2023/06/14 10:25:40;;;;;;;6.75;2.00;;;;;;;;;;5089602;28;20277;-78
2023/06/14 10:28:12;;;;;;;6.75;2.00;;;;;;;;;;5080740;28;20199;-78
2023/06/14 10:30:38;;;;;;;3.20;2.00;;;;;;;;;;5097518;28;20270;-78
2023/06/14 10:33:06;;;;;;;2.83;2.00;;;;;;;;;;5076741;28;20261;-78
2023/06/14 10:35:32;;;;;;;5.50;1.90;;;;;;;;;;5060108;28;20235;-78
2023/06/14 10:38:08;;;;;;;4.70;1.77;;;;;;;;;;5080998;28;20241;-78
2023/06/14 10:40:34;;;;;;;5.93;1.77;;;;;;;;;;5113564;28;20193;-78
2023/06/14 10:43:00;;;;;;;5.53;1.85;;;;;;;;;;5097016;28;20174;-78
2023/06/14 10:45:26;;;;;;;2.60;1.85;;;;;;;;;;5079935;28;20296;-78
2023/06/14 10:47:53;;;;;;;4.50;1.58;;;;;;;;;;5096801;28;20268;-78
2023/06/14 10:50:29;;;;;;;4.82;1.42;;;;;;;;;;5115033;28;20253;-78
2023/06/14 10:52:55;;;;;;;4.90;1.70;;;;;;;;;;5114486;28;20174;-78
2023/06/14 10:55:22;;;;;;;4.25;2.00;;;;;;;;;;5079683;28;20178;-78
2023/06/14 10:57:55;;;;;;;6.38;1.77;;;;;;;;;;5112412;28;20237;-78
2023/06/14 11:00:24;;;;;;;4.55;1.80;;;;;;;;;;5114410;28;20162;-79
2023/06/14 11:03:09;;;;;;;5.72;2.00;;;;;;;;;;5094173;28;20186;-79
2023/06/14 11:05:52;;;;;;;2.30;2.05;;;;;;;;;;5114463;28;20194;-78
2023/06/14 11:08:33;;;;;;;4.82;2.03;;;;;;;;;;5095731;28;20166;-79
2023/06/14 11:11:00;;;;;;;3.90;2.03;;;;;;;;;;5113187;28;20227;-78
2023/06/14 11:13:26;;;;;;;3.40;2.03;;;;;;;;;;5113312;28;20174;-79
2023/06/14 11:15:53;;;;;;;4.50;2.20;;;;;;;;;;5094921;28;20186;-78
2023/06/14 11:18:24;;;;;;;4.55;2.05;;;;;;;;;;5107089;28;20178;-82
2023/06/14 11:20:50;;;;;;;5.53;1.95;;;;;;;;;;5112196;28;20284;-82
2023/06/14 11:23:16;;;;;;;4.82;2.00;;;;;;;;;;5114552;28;20193;-83
2023/06/14 11:25:42;;;;;;;5.78;2.00;;;;;;;;;;5113730;28;20233;-82
2023/06/14 11:28:08;;;;;;;3.90;1.85;;;;;;;;;;5095535;28;20178;-82
2023/06/14 11:30:34;;;;;;;4.50;2.20;;;;;;;;;;5095270;28;20185;-82
2023/06/14 11:33:00;;;;;;;2.97;1.90;;;;;;;;;;5096164;28;20224;-82
2023/06/14 11:35:26;;;;;;;2.63;2.00;;;;;;;;;;5131968;22;20260;-82
2023/06/14 11:37:56;;;;;;;4.78;1.88;;;;;;;;;;5117420;28;20248;-82
2023/06/14 11:40:25;;;;;;;2.00;1.80;;;;;;;;;;5134197;27;20177;-83
2023/06/14 11:42:59;;;;;;;2.13;1.92;;;;;;;;;;5134712;28;20170;-82
2023/06/14 11:45:25;;;;;;;4.15;1.77;;;;;;;;;;5116388;27;20169;-82
2023/06/14 11:47:51;;;;;;;3.83;2.00;;;;;;;;;;5116546;28;20173;-82
2023/06/14 11:50:17;;;;;;;3.60;1.73;;;;;;;;;;5099871;28;20188;-81
2023/06/14 11:52:43;;;;;;;3.80;1.90;;;;;;;;;;5099674;27;20173;-82
2023/06/14 11:55:10;;;;;;;3.58;1.80;;;;;;;;;;5103614;27;20256;-82
2023/06/14 11:57:38;;;;;;;4.80;2.00;;;;;;;;;;5121448;27;20189;-82
2023/06/14 12:00:07;;;;;;;3.15;1.90;;;;;;;;;;5120404;27;20185;-82
2023/06/14 12:02:33;;;;;;;2.45;1.80;;;;;;;;;;5103843;27;20198;-82
2023/06/14 12:05:05;;;;;;;5.55;1.85;;;;;;;;;;5120312;27;20173;-81
2023/06/14 12:07:31;;;;;;;6.57;2.03;;;;;;;;;;5120111;27;20268;-79
2023/06/14 12:09:57;;;;;;;2.03;1.80;;;;;;;;;;5149142;27;20176;-79
2023/06/14 12:12:25;;;;;;;3.35;1.55;;;;;;;;;;5125423;27;20180;-79
2023/06/14 12:14:51;;;;;;;7.18;2.10;;;;;;;;;;5131649;27;20199;-79
2023/06/14 12:17:17;;;;;;;2.55;1.80;;;;;;;;;;5138097;27;20237;-80
2023/06/14 12:19:44;;;;;;;3.15;1.90;;;;;;;;;;5147745;27;20184;-79
2023/06/14 12:22:10;;;;;;;2.42;1.88;;;;;;;;;;5136937;27;20173;-79
2023/06/14 12:24:37;;;;;;;8.23;1.90;;;;;;;;;;5138585;27;20195;-80
2023/06/14 12:27:03;;;;;;;4.53;1.60;;;;;;;;;;5121526;27;20212;-80
2023/06/14 12:29:30;;;;;;;2.13;1.70;;;;;;;;;;5147011;27;20207;-80
2023/06/14 12:31:56;;;;;;;5.65;1.80;;;;;;;;;;5118050;27;20184;-80
2023/06/14 12:34:27;;;;;;;3.03;1.73;;;;;;;;;;5124115;27;20177;-83
2023/06/14 12:36:53;;;;;;;2.95;2.17;;;;;;;;;;5127452;27;20226;-83
2023/06/14 12:39:19;;;;;;;2.25;1.70;;;;;;;;;;5132310;27;20177;-82
2023/06/14 12:41:45;;;;;;;3.42;1.60;;;;;;;;;;5129329;27;20220;-81
2023/06/14 12:44:12;;;;;;;2.30;1.92;;;;;;;;;;5102863;27;20238;-82
2023/06/14 12:46:39;;;;;;;3.47;1.60;;;;;;;;;;5124133;27;20212;-82
2023/06/14 12:49:06;;;;;;;4.20;1.90;;;;;;;;;;5102999;27;20252;-83
2023/06/14 12:51:32;;;;;;;2.15;1.70;;;;;;;;;;5145904;27;20235;-84
2023/06/14 12:53:58;;;;;;;2.38;1.77;;;;;;;;;;5123985;27;20177;-83
2023/06/14 12:56:26;;;;;;;5.15;1.80;;;;;;;;;;5112573;27;20245;-83
2023/06/14 12:58:52;;;;;;;5.07;1.80;;;;;;;;;;5137721;27;20169;-84
2023/06/14 13:01:18;;;;;;;3.78;1.65;;;;;;;;;;5145844;27;20185;-83
2023/06/14 13:03:44;;;;;;;3.50;1.60;;;;;;;;;;5114810;27;20185;-84
2023/06/14 13:06:10;;;;;;;7.07;1.55;;;;;;;;;;5135381;27;20201;-83
2023/06/14 13:08:36;;;;;;;3.90;1.73;;;;;;;;;;5151326;27;20173;-83
2023/06/14 13:11:02;;;;;;;2.70;1.50;;;;;;;;;;5127664;27;20184;-83
2023/06/14 13:13:28;;;;;;;3.33;1.73;;;;;;;;;;5119472;27;20269;-80
2023/06/14 13:15:55;;;;;;;3.40;1.48;;;;;;;;;;5139551;27;20228;-79
2023/06/14 13:18:20;;;;;;;3.25;1.42;;;;;;;;;;5113435;27;20280;-80
2023/06/14 13:20:47;;;;;;;4.00;1.40;;;;;;;;;;5118725;27;20213;-80
2023/06/14 13:23:13;;;;;;;3.65;1.50;;;;;;;;;;5136914;27;20177;-79
2023/06/14 13:25:40;;;;;;;2.90;1.30;;;;;;;;;;5118679;27;20219;-80
2023/06/14 13:28:06;;;;;;;2.75;1.50;;;;;;;;;;5119281;27;20184;-81
2023/06/14 13:30:32;;;;;;;3.35;1.90;;;;;;;;;;5157611;27;20225;-80
2023/06/14 13:32:59;;;;;;;2.42;1.30;;;;;;;;;;5127477;27;20192;-78
2023/06/14 13:35:25;;;;;;;2.90;1.38;;;;;;;;;;5118499;27;20284;-79
2023/06/14 13:37:51;;;;;;;2.72;1.45;;;;;;;;;;5123050;27;20180;-79
2023/06/14 13:40:17;;;;;;;2.25;1.50;;;;;;;;;;5139043;27;20245;-78
2023/06/14 13:42:43;;;;;;;3.15;1.48;;;;;;;;;;5119030;27;20177;-80
2023/06/14 13:45:11;;;;;;;3.20;1.40;;;;;;;;;;5130217;27;20177;-79
2023/06/14 13:47:37;;;;;;;4.07;1.40;;;;;;;;;;5101423;27;20181;-82
2023/06/14 13:50:03;;;;;;;2.55;1.33;;;;;;;;;;5117746;27;20187;-81
2023/06/14 13:52:29;;;;;;;2.42;1.35;;;;;;;;;;5107172;27;20704;-83
2023/06/14 13:54:55;;;;;;;1.55;1.40;;;;;;;;;;5136136;27;20180;-81
2023/06/14 13:57:21;;;;;;;2.83;1.58;;;;;;;;;;5104563;27;20177;-82
2023/06/14 13:59:48;;;;;;;3.17;1.70;;;;;;;;;;5118205;27;20188;-83
2023/06/14 14:02:14;;;;;;;1.45;1.35;;;;;;;;;;5135438;27;20209;-82
2023/06/14 14:04:40;;;;;;;3.03;1.40;;;;;;;;;;5134847;27;20176;-79
2023/06/14 14:07:07;;;;;;;1.42;1.30;;;;;;;;;;5134396;27;20205;-79
2023/06/14 14:09:34;;;;;;;2.33;1.48;;;;;;;;;;5121126;27;20173;-79
2023/06/14 14:12:00;;;;;;;1.67;1.40;;;;;;;;;;5107110;27;20187;-78
2023/06/14 14:14:27;;;;;;;2.55;1.50;;;;;;;;;;5127782;27;20191;-79
2023/06/14 14:16:54;;;;;;;4.47;1.48;;;;;;;;;;5128808;27;20176;-79
2023/06/14 14:19:21;;;;;;;6.20;1.60;;;;;;;;;;5129225;27;20333;-79
2023/06/14 14:21:47;;;;;;;2.33;1.50;;;;;;;;;;5155452;27;20181;-79
2023/06/14 14:24:13;;;;;;;2.33;1.27;;;;;;;;;;5119766;27;20279;-79
2023/06/14 14:26:39;;;;;;;4.28;1.35;;;;;;;;;;5136681;27;20207;-79
2023/06/14 14:29:05;;;;;;;4.00;1.52;;;;;;;;;;5133912;27;20188;-78
2023/06/14 14:31:32;;;;;;;2.75;1.50;;;;;;;;;;5137901;27;20255;-79
2023/06/14 14:33:58;;;;;;;4.90;1.65;;;;;;;;;;5120980;27;20177;-79
2023/06/14 14:36:24;;;;;;;1.70;1.23;;;;;;;;;;5109931;28;20283;-78
2023/06/14 14:38:51;;;;;;;3.97;1.48;;;;;;;;;;5093918;28;20183;-83
2023/06/14 14:41:17;;;;;;;1.60;1.40;;;;;;;;;;5077188;28;20194;-83